createdAt,value
2023-04-29T00:01:50.673Z,9.4
2023-04-29T00:03:54.394Z,9.4
2023-04-29T00:06:01.124Z,9.4
2023-04-29T00:08:04.411Z,9.5
2023-04-29T00:10:07.978Z,9.4
2023-04-29T00:12:11.567Z,9.5
2023-04-29T00:14:15.114Z,9.5
2023-04-29T00:18:22.273Z,9.5
2023-04-29T00:22:32.462Z,9.4
2023-04-29T00:29:46.530Z,9.4
2023-04-29T00:31:50.093Z,9.4
2023-04-29T00:33:56.744Z,9.6
2023-04-29T00:38:03.901Z,9.4
2023-04-29T00:40:07.436Z,9.5
2023-04-29T00:42:11.045Z,9.5
2023-04-29T00:44:14.602Z,9.5
2023-04-29T00:46:18.438Z,9.5
2023-04-29T00:48:24.818Z,9.4
2023-04-29T00:50:28.350Z,9.4
2023-04-29T00:52:31.934Z,9.5
2023-04-29T00:54:35.539Z,9.5
2023-04-29T00:56:39.092Z,9.5
2023-04-29T01:04:56.598Z,9.5
2023-04-29T01:06:59.970Z,9.4
2023-04-29T01:09:03.562Z,9.5
2023-04-29T01:19:24.453Z,9.3
2023-04-29T01:21:28.027Z,9.4
2023-04-29T01:26:38.511Z,9.4
2023-04-29T01:28:42.051Z,9.4
2023-04-29T01:32:52.316Z,9.3
2023-04-29T01:34:55.885Z,9.3
2023-04-29T01:36:59.448Z,9.3
2023-04-29T01:41:06.605Z,9.3
2023-04-29T01:43:10.181Z,9.4
2023-04-29T01:45:16.832Z,9.3
2023-04-29T01:47:20.375Z,9.3
2023-04-29T01:49:23.978Z,9.4
2023-04-29T01:51:27.534Z,9.3
2023-04-29T01:53:31.092Z,9.4
2023-04-29T01:55:34.677Z,9.4
2023-04-29T01:57:38.247Z,9.3
2023-04-29T02:07:59.171Z,9.3
2023-04-29T02:12:06.341Z,9.3
2023-04-29T02:14:12.944Z,9.3
2023-04-29T02:16:16.570Z,9.3
2023-04-29T02:18:20.104Z,9.3
2023-04-29T02:19:23.429Z,9.3
2023-04-29T02:21:27.057Z,9.3
2023-04-29T02:25:34.169Z,9.3
2023-04-29T02:27:40.811Z,9.2
2023-04-29T02:29:44.330Z,9.3
2023-04-29T02:31:47.987Z,9.3
2023-04-29T02:40:02.200Z,9.2
2023-04-29T02:42:08.865Z,9.1
2023-04-29T02:44:12.481Z,9.1
2023-04-29T02:48:19.583Z,9.2
2023-04-29T02:50:17.125Z,9.2
2023-04-29T02:52:20.683Z,9.2
2023-04-29T02:54:24.281Z,9.1
2023-04-29T02:56:30.906Z,9.1
2023-04-29T02:58:34.510Z,9.1
2023-04-29T03:00:38.051Z,9.2
2023-04-29T03:02:41.749Z,9.2
2023-04-29T03:04:45.205Z,9.1
2023-04-29T03:06:48.756Z,9.1
2023-04-29T03:08:52.380Z,9.1
2023-04-29T03:13:02.548Z,9.1
2023-04-29T03:15:06.180Z,9.1
2023-04-29T03:17:30.614Z,9
2023-04-29T03:19:34.195Z,9
2023-04-29T03:27:51.585Z,9
2023-04-29T03:29:55.267Z,9
2023-04-29T03:34:02.304Z,8.9
2023-04-29T03:36:05.927Z,8.9
2023-04-29T03:44:23.294Z,8.9
2023-04-29T03:56:47.859Z,8.8
2023-04-29T04:02:58.684Z,8.8
2023-04-29T04:11:16.014Z,8.8
2023-04-29T04:12:19.350Z,8.8
2023-04-29T04:14:22.920Z,8.8
2023-04-29T04:16:26.526Z,8.8
2023-04-29T04:18:30.056Z,8.8
2023-04-29T04:20:36.707Z,8.8
2023-04-29T04:22:40.288Z,8.8
2023-04-29T04:32:58.242Z,8.9
2023-04-29T04:45:22.824Z,8.9
2023-04-29T05:01:54.611Z,9
2023-04-29T05:04:01.370Z,9.1
2023-04-29T05:06:04.802Z,9
2023-04-29T05:08:08.369Z,9.1
2023-04-29T05:09:11.696Z,9.1
2023-04-29T05:23:41.576Z,9.2
2023-04-29T05:25:45.135Z,9.3
2023-04-29T05:27:48.719Z,9.2
2023-04-29T05:29:52.536Z,9.2
2023-04-29T05:31:58.920Z,9.3
2023-04-29T05:34:02.518Z,9.3
2023-04-29T05:36:06.145Z,9.3
2023-04-29T05:38:09.696Z,9.2
2023-04-29T05:40:13.319Z,9.3
2023-04-29T05:44:20.457Z,9.4
2023-04-29T05:46:27.224Z,9.3
2023-04-29T05:48:30.717Z,9.3
2023-04-29T05:50:34.272Z,9.4
2023-04-29T05:54:41.437Z,9.5
2023-04-29T05:56:45.059Z,9.5
2023-04-29T05:58:48.627Z,9.6
2023-04-29T06:00:55.293Z,9.6
2023-04-29T06:05:02.735Z,9.6
2023-04-29T06:06:05.785Z,9.6
2023-04-29T06:08:09.323Z,9.6
2023-04-29T06:12:16.477Z,9.6
2023-04-29T06:14:23.120Z,9.7
2023-04-29T06:16:26.753Z,9.7
2023-04-29T06:18:30.277Z,9.7
2023-04-29T06:20:36.078Z,9.7
2023-04-29T06:22:37.401Z,9.8
2023-04-29T06:24:41.027Z,9.8
2023-04-29T06:30:54.826Z,9.9
2023-04-29T06:32:58.481Z,10
2023-04-29T06:35:01.975Z,10.1
2023-04-29T06:37:05.537Z,10.1
2023-04-29T06:39:09.155Z,10.1
2023-04-29T06:41:12.645Z,10.2
2023-04-29T06:43:19.325Z,10.2
2023-04-29T06:45:22.912Z,10.3
2023-04-29T06:47:26.513Z,10.3
2023-04-29T06:49:30.047Z,10.4
2023-04-29T06:51:33.593Z,10.4
2023-04-29T06:53:37.181Z,10.4
2023-04-29T06:55:40.729Z,10.4
2023-04-29T06:59:51.281Z,10.6
2023-04-29T07:01:54.575Z,10.6
2023-04-29T07:04:19.746Z,10.8
2023-04-29T07:06:23.214Z,10.8
2023-04-29T07:08:26.817Z,10.8
2023-04-29T07:10:33.410Z,10.9
2023-04-29T07:12:36.971Z,10.9
2023-04-29T07:16:44.181Z,10.9
2023-04-29T07:18:47.645Z,10.9
2023-04-29T07:22:54.730Z,11
2023-04-29T07:25:01.418Z,11.1
2023-04-29T07:27:04.953Z,11.1
2023-04-29T07:29:08.474Z,11.3
2023-04-29T07:31:12.053Z,11.5
2023-04-29T07:37:22.667Z,11.7
2023-04-29T07:39:29.325Z,11.9
2023-04-29T07:41:32.837Z,12
2023-04-29T07:43:36.407Z,12.1
2023-04-29T07:45:39.974Z,12.3
2023-04-29T07:47:43.557Z,12.3
2023-04-29T07:49:47.023Z,12.3
2023-04-29T07:51:50.562Z,12.8
2023-04-29T07:53:57.178Z,13.2
2023-04-29T07:56:00.698Z,13
2023-04-29T07:59:07.557Z,13.1
2023-04-29T08:01:11.104Z,12.9
2023-04-29T08:03:14.707Z,12.8
2023-04-29T08:05:18.458Z,12.4
2023-04-29T08:07:24.892Z,12.4
2023-04-29T08:09:28.254Z,12.5
2023-04-29T08:11:31.869Z,12.4
2023-04-29T08:13:35.363Z,12.4
2023-04-29T08:15:38.880Z,12.7
2023-04-29T08:17:42.409Z,12.9
2023-04-29T08:19:45.935Z,12.7
2023-04-29T08:21:52.500Z,12.7
2023-04-29T08:23:56.166Z,12.8
2023-04-29T08:25:59.528Z,13
2023-04-29T08:28:03.061Z,14
2023-04-29T08:30:06.599Z,15.1
2023-04-29T08:32:10.105Z,14.8
2023-04-29T08:34:13.639Z,15.9
2023-04-29T08:36:20.218Z,16.1
2023-04-29T08:38:23.708Z,15.1
2023-04-29T08:40:27.265Z,15.1
2023-04-29T08:42:30.726Z,14.6
2023-04-29T08:44:34.206Z,14.6
2023-04-29T08:46:37.744Z,15.2
2023-04-29T08:48:44.158Z,16.8
2023-04-29T08:50:47.771Z,16.4
2023-04-29T08:52:51.254Z,16
2023-04-29T08:54:54.928Z,16.7
2023-04-29T08:55:57.903Z,15.4
2023-04-29T09:04:14.936Z,16.2
2023-04-29T09:06:18.271Z,15.8
2023-04-29T09:08:21.672Z,15.5
2023-04-29T09:10:25.131Z,14.9
2023-04-29T09:16:35.435Z,15.8
2023-04-29T09:26:55.479Z,16.5
2023-04-29T09:28:58.850Z,16.7
2023-04-29T09:31:02.283Z,16.8
2023-04-29T09:33:08.639Z,16.9
2023-04-29T09:35:11.920Z,16.7
2023-04-29T09:37:15.343Z,17.1
2023-04-29T09:39:18.995Z,16.4
2023-04-29T09:41:22.052Z,15.4
2023-04-29T09:45:28.760Z,14.9
2023-04-29T09:51:41.879Z,15.5
2023-04-29T09:52:45.165Z,15.6
2023-04-29T09:54:48.593Z,15.8
2023-04-29T09:56:51.941Z,15.5
2023-04-29T09:58:55.274Z,15
2023-04-29T10:01:01.790Z,14.3
2023-04-29T10:03:05.159Z,14.3
2023-04-29T10:05:08.444Z,14.5
2023-04-29T10:07:11.887Z,14.6
2023-04-29T10:09:15.249Z,14.6
2023-04-29T10:11:18.690Z,14.4
2023-04-29T10:13:22.106Z,14.5
2023-04-29T10:15:28.588Z,14.6
2023-04-29T10:17:32.030Z,14.7
2023-04-29T10:19:35.379Z,15.8
2023-04-29T10:21:38.764Z,16
2023-04-29T10:23:42.075Z,16.2
2023-04-29T10:25:45.537Z,16.7
2023-04-29T10:27:48.964Z,17.5
2023-04-29T10:31:58.857Z,17.6
2023-04-29T10:36:05.533Z,16.8
2023-04-29T10:38:08.812Z,15.8
2023-04-29T10:40:12.140Z,15.5
2023-04-29T10:42:15.489Z,15
2023-04-29T10:44:21.792Z,15.5
2023-04-29T10:46:25.220Z,15.6
2023-04-29T10:48:28.475Z,15.9
2023-04-29T10:50:52.511Z,16.9
2023-04-29T10:52:55.800Z,16.8
2023-04-29T10:54:59.169Z,16.9
2023-04-29T10:57:05.472Z,17.2
2023-04-29T10:59:08.739Z,17.4
2023-04-29T11:01:12.056Z,17.7
2023-04-29T11:03:15.380Z,17.4
2023-04-29T11:05:18.651Z,16.5
2023-04-29T11:07:21.937Z,16.1
2023-04-29T11:09:25.297Z,15.9
2023-04-29T11:11:31.662Z,16.7
2023-04-29T11:13:35.009Z,16.9
2023-04-29T11:15:38.263Z,17.4
2023-04-29T11:17:43.177Z,17.1
2023-04-29T11:19:46.375Z,16.5
2023-04-29T11:38:18.328Z,16.8
2023-04-29T11:42:27.845Z,17.7
2023-04-29T11:44:31.140Z,17.3
2023-04-29T11:45:34.274Z,16.3
2023-04-29T11:47:37.588Z,16
2023-04-29T11:49:40.698Z,16.1
2023-04-29T11:55:53.620Z,17.8
2023-04-29T12:02:03.265Z,17.1
2023-04-29T12:04:06.775Z,17
2023-04-29T12:06:09.637Z,17.2
2023-04-29T12:08:15.831Z,16.3
2023-04-29T12:10:19.000Z,16.4
2023-04-29T12:12:22.210Z,16.8
2023-04-29T12:14:25.378Z,17.6
2023-04-29T12:37:05.801Z,17.1
2023-04-29T12:39:08.872Z,16.9
2023-04-29T12:42:15.100Z,17.3
2023-04-29T12:44:18.276Z,17.7
2023-04-29T12:46:21.364Z,18.1
2023-04-29T12:50:30.574Z,19.1
2023-04-29T12:52:36.419Z,18.8
2023-04-29T12:58:42.933Z,17.1
2023-04-29T13:00:46.096Z,18
2023-04-29T13:02:49.240Z,18.5
2023-04-29T13:04:55.457Z,18.6
2023-04-29T13:06:58.212Z,18.6
2023-04-29T13:09:01.222Z,19
2023-04-29T13:11:04.241Z,19.3
2023-04-29T13:13:07.256Z,18.7
2023-04-29T13:17:13.653Z,19.2
2023-04-29T13:21:22.166Z,18.8
2023-04-29T13:23:25.145Z,19.2
2023-04-29T13:27:31.246Z,19.1
2023-04-29T13:29:33.935Z,18.5
2023-04-29T13:35:45.801Z,19.4
2023-04-29T13:38:55.064Z,18.1
2023-04-29T13:40:55.361Z,18.8
2023-04-29T13:47:06.964Z,19.7
2023-04-29T13:51:33.308Z,20.4
2023-04-29T14:03:35.581Z,18
2023-04-29T14:34:24.904Z,18.4
2023-04-29T14:43:04.617Z,16.9
2023-04-29T14:45:07.712Z,17.5
2023-04-29T14:49:14.028Z,18.3
2023-04-29T14:51:17.209Z,17.7
2023-04-29T14:53:20.394Z,16.6
2023-04-29T14:55:23.550Z,16.1
2023-04-29T14:57:29.802Z,15.9
2023-04-29T14:59:32.985Z,16.1
2023-04-29T15:05:42.867Z,17.8
2023-04-29T15:11:55.908Z,19.2
2023-04-29T15:18:05.711Z,16.8
2023-04-29T15:20:09.001Z,16.2
2023-04-29T15:22:12.338Z,15.9
2023-04-29T15:24:15.576Z,16.4
2023-04-29T15:26:22.068Z,18.5
2023-04-29T15:28:25.419Z,18.3
2023-04-29T15:30:28.714Z,18.2
2023-04-29T15:31:32.016Z,18.5
2023-04-29T15:33:35.177Z,18.6
2023-04-29T15:35:38.569Z,18
2023-04-29T15:37:41.815Z,18.1
2023-04-29T15:39:48.065Z,18.3
2023-04-29T15:50:04.344Z,18.6
2023-04-29T15:52:07.683Z,18.8
2023-04-29T15:56:17.354Z,18.4
2023-04-29T15:58:20.725Z,18.1
2023-04-29T16:00:24.038Z,17.6
2023-04-29T16:04:30.678Z,18.3
2023-04-29T16:06:34.081Z,17.8
2023-04-29T16:08:40.406Z,17.2
2023-04-29T16:10:43.673Z,17.4
2023-04-29T16:12:47.037Z,17.4
2023-04-29T16:16:53.752Z,17.8
2023-04-29T16:18:56.989Z,17.8
2023-04-29T16:27:13.287Z,18.9
2023-04-29T16:28:16.431Z,19.1
2023-04-29T16:30:19.664Z,19.1
2023-04-29T16:32:22.954Z,19
2023-04-29T16:34:26.232Z,19.1
2023-04-29T16:38:35.705Z,18.3
2023-04-29T16:42:42.210Z,18.7
2023-04-29T16:44:45.438Z,18.7
2023-04-29T16:46:48.698Z,19.1
2023-04-29T16:48:52.049Z,19.8
2023-04-29T16:50:58.322Z,19.6
2023-04-29T16:53:01.619Z,19.5
2023-04-29T16:57:08.128Z,18.7
2023-04-29T16:59:11.349Z,18
2023-04-29T17:09:30.702Z,15.4
2023-04-29T17:11:34.075Z,15.2
2023-04-29T17:13:37.933Z,14.9
2023-04-29T17:17:44.486Z,14.8
2023-04-29T17:21:54.269Z,14.6
2023-04-29T17:23:57.650Z,14.6
2023-04-29T17:25:00.936Z,14.6
2023-04-29T17:27:04.324Z,14.6
2023-04-29T17:29:07.735Z,14.5
2023-04-29T17:33:17.810Z,14.3
2023-04-29T17:35:21.060Z,14.4
2023-04-29T17:37:24.470Z,14.3
2023-04-29T17:39:27.932Z,14.2
2023-04-29T17:45:38.380Z,14
2023-04-29T17:47:44.897Z,13.9
2023-04-29T17:49:48.317Z,13.9
2023-04-29T17:51:51.857Z,13.9
2023-04-29T17:53:55.259Z,14
2023-04-29T17:55:58.769Z,13.9
2023-04-29T17:58:02.256Z,14.8
2023-04-29T18:00:05.741Z,16.2
2023-04-29T18:02:12.322Z,16.3
2023-04-29T18:14:33.233Z,15.5
2023-04-29T18:16:39.870Z,15
2023-04-29T18:18:43.345Z,15.2
2023-04-29T18:20:46.812Z,14.6
2023-04-29T18:35:29.058Z,12.7
2023-04-29T18:37:32.552Z,12.5
2023-04-29T18:39:36.024Z,12.5
2023-04-29T18:41:39.546Z,12.4
2023-04-29T18:47:53.171Z,12.1
2023-04-29T18:52:00.182Z,11.9
2023-04-29T18:54:03.700Z,11.9
2023-04-29T19:17:52.063Z,10.9
2023-04-29T19:24:02.749Z,10.8
2023-04-29T19:26:09.330Z,10.7
2023-04-29T19:28:12.923Z,10.6
2023-04-29T19:30:16.478Z,10.6
2023-04-29T19:32:19.966Z,10.5
2023-04-29T19:34:23.539Z,10.5
2023-04-29T20:03:19.477Z,9.8
2023-04-29T20:05:22.999Z,9.8
2023-04-29T20:07:26.572Z,9.7
2023-04-29T20:09:33.212Z,9.6
2023-04-29T20:11:36.777Z,9.6
2023-04-29T20:13:40.322Z,9.6
2023-04-29T20:14:43.687Z,9.5
2023-04-29T20:31:15.312Z,9.1
2023-04-29T20:37:29.134Z,8.9
2023-04-29T20:39:32.745Z,8.9
2023-04-29T20:41:36.268Z,8.9
2023-04-29T20:45:43.531Z,9
2023-04-29T20:47:47.085Z,9
2023-04-29T20:49:50.659Z,9
2023-04-29T20:51:57.313Z,8.9
2023-04-29T20:54:00.951Z,8.9
2023-04-29T20:56:04.518Z,8.8
2023-04-29T20:58:08.062Z,8.8
2023-04-29T21:00:11.742Z,8.7
2023-04-29T21:02:15.256Z,8.6
2023-04-29T21:04:18.960Z,8.5
2023-04-29T21:06:25.610Z,8.5
2023-04-29T21:08:29.089Z,8.4
2023-04-29T21:11:36.073Z,8.4
2023-04-29T21:15:43.307Z,8.4
2023-04-29T21:17:46.892Z,8.4
2023-04-29T21:19:53.696Z,8.3
2023-04-29T21:21:57.140Z,8.3
2023-04-29T21:24:00.703Z,8.2
2023-04-29T21:26:04.324Z,8.1
2023-04-29T21:28:07.922Z,8.1
2023-04-29T21:30:11.542Z,8.1
2023-04-29T21:32:15.131Z,8
2023-04-29T21:34:21.793Z,8
2023-04-29T21:36:25.410Z,7.9
2023-04-29T21:38:29.021Z,7.9
2023-04-29T21:42:36.249Z,7.8
2023-04-29T21:44:39.858Z,7.8
2023-04-29T22:03:18.506Z,7.4
2023-04-29T22:05:22.150Z,7.4
2023-04-29T22:07:25.767Z,7.3
2023-04-29T22:22:14.784Z,7.1
2023-04-29T22:24:18.412Z,7.1
2023-04-29T22:26:22.122Z,7.1
2023-04-29T22:28:25.674Z,7
2023-04-29T22:34:39.624Z,7.1
2023-04-29T22:36:43.189Z,7.1
2023-04-29T22:38:46.805Z,7
2023-04-29T22:45:00.821Z,6.8
2023-04-29T22:47:04.420Z,6.8
2023-04-29T23:03:36.541Z,6.7
2023-04-29T23:04:39.906Z,6.6
2023-04-29T23:06:43.594Z,6.6
2023-04-29T23:12:58.970Z,6.5
2023-04-29T23:15:02.591Z,6.5
2023-04-29T23:21:13.526Z,6.5
2023-04-29T23:37:45.579Z,6.2
2023-04-29T23:41:55.973Z,6.1
2023-04-29T23:48:06.929Z,6.2
2023-04-29T23:50:10.485Z,6.2
2023-04-29T23:52:14.153Z,6.1
2023-04-29T23:54:17.781Z,6.1
2023-04-29T23:58:28.104Z,6
